Pisgah, South Carolina
Current Conditions -  °F | °C
As of 6:58 PM on Friday 21 Nov 2014 (Local Time) from KSSC Reporting Station
Clear Clear  
Wind Chill: 42°   Ceiling: Unl
Heat Index: 44°   Visibility: 10mi
Dew Point: 25°   Wind: 5mph
Humidity: 47%   Direction: 50°NE
Pressure: 30.43"   Gusts: NA
Location:  34.1106°N, 80.4967°W
Report Text: KSSC 212358Z AUTO 05004KT 10SM CLR 07/M04 A3043 RMK AO2 SLP307 T00681039 10173 20064 52020 $
Loading
Personal Weather Stations






























Interactive Weather Map New forecast layout! Learn more

10-Day Weather Forecast

Advertisements
Track Severe Weather on mobile